Login

Stavanger

Pos Pair Lane Name Born Nation Time
1 12 I Sander Eitrem 2002 Norway 6:18.31
2 7 O Sigurd Henriksen 2004 Norway 6:25.25
3 11 O Ryosuke Tsuchiya 1994 Japan 6:29.19
4 8 O Connor Howe 2000 Canada 6:30.51
5 10 O Timothy Loubineaud 1996 France 6:31.56
6 13 O Ethan Cepuran 2000 USA 6:32.37
7 6 I Takahiro Ito 1996 Japan 6:32.63
8 8 I Fridtjof Petzold 1997 Germany 6:33.46
9 7 I Vitaliy Chshigolev 1997 Kazakhstan 6:34.56
10 3 I Motonaga Arito 2002 Japan 6:35.52
11 11 I Sverre Lunde Pedersen 1992 Norway 6:35.67
12 9 I Seung-Hoon Lee 1988 South Korea 6:36.07
13 4 O Jordan Stolz 2004 USA 6:37.24
14 5 O Yu Wu 1997 China 6:37.44
15 6 O Szymon Palka 1997 Poland 6:38.35
16 12 O Emery Lehman 1996 USA 6:39.16
17 3 O Kasper Tveter 2001 Norway 6:39.34
18 2 I Riccardo Lorello 2002 Italy 6:40.13
19 1 I Daniele Di Stefano 1999 Italy 6:40.16
20 10 I Viktor Hald Thorup 1994 Denmark 6:42.16
21 9 O Jae-Won Chung 2001 South Korea 6:42.59
22 5 I Bakdaulet Sagatov 2002 Kazakhstan 6:42.70
23 13 I Livio Wenger 1993 Switzerland 6:43.44
24 2 O Manuel Gras 1994 Germany 6:43.81
25 4 I Gabriel Odor 2000 Austria 6:46.24

Info

What World Cup B-group
Discipline 5.000
Host Stavanger
Nation Norway
Date Saturday 12.Nov 2022
Calendar 2022/2023
Air Temp 14.0 C
Ice Temp -7.3 C
Humidity 45.0 %